Lawtons, New York
Current Conditions -  °F | °C
As of 11:53 PM on Sunday 19 Oct 2014 (Local Time) from KDKK Reporting Station
Broken Clouds Broken Clouds  
Wind Chill: 38°   Ceiling: 11000
Heat Index: 44°   Visibility: 10mi
Dew Point: 37°   Wind: 12mph
Humidity: 76%   Direction: 200°SSW
Pressure: 30.01"   Gusts: 22mph
Location:  42.54°N, 78.93°W
Report Text: KDKK 200353Z AUTO 20010G19KT 10SM BKN110 07/03 A3001 RMK AO2 SLP167 T00670028
Loading
Personal Weather Stations






























Interactive Weather Map
Tropical Storm Tracking
New forecast layout! Learn more

10-Day Weather Forecast

Advertisements
Track Severe Weather on mobile